• Join FlightAware (Why Join?)
  • Login
  • US Flag 
12:23AM EST


 

Airport Tracker/Info


-or-


 

Live Flight TrackerFlight Track Log ✈ DAL3672 ✈ 17-Apr-2013 ✈ KMHT - KDTW

Flight Track Log - Related Links

Times and Time Zones

All times are in EDT time to prevent confusion due to time zone crossing. See the DAL3672 flight status page for this flight to view local times or setup timezone preferences in your user account.

Time Position Orientation Groundspeed Altitude Reporting Facility
EDT Latitude Longitude Course Direction KTS MPH feet Rate Location/Type
12:32PM 42.9667 -71.4500 360° North 181 208 2,200  Level KA90
12:33PM 43.0175 -71.4944 327° Northwest 213 245 4,500 2,520 Climbing Boston Center
12:34PM 43.0661 -71.5619 315° West 228 262 7,300 2,760 Climbing Boston Center
12:35PM 42.9500 -71.9136 270° West  Level FlightAware Approximate
12:35PM 43.1164 -71.6294 316° Northwest 247 284 10,100  Level Boston Center
12:36PM 42.9500 -72.0348 270° West  Level FlightAware Approximate
12:36PM 43.1400 -71.7175 290° West 252 290 11,400  Level Boston Center
12:37PM 42.9501 -72.1561 270° West  Level FlightAware Approximate
12:37PM 43.1428 -71.8369 272° West 288 331 13,000  Level Boston Center
12:38PM 43.1456 -71.9536 272° West 313 360 14,400 1,560 Climbing Boston Center
12:39PM 43.1481 -72.0758 272° West 324 373 16,200 1,680 Climbing Boston Center
12:40PM 43.1503 -72.2011 271° West 329 379 17,800 1,440 Climbing Boston Center
12:41PM 43.1547 -72.3206 273° West 324 373 19,200 1,260 Climbing Boston Center
12:42PM 43.1569 -72.4400 272° West 324 373 20,300 1,020 Climbing Boston Center
12:43PM 43.1589 -72.5625 271° West 324 373 21,300 960 Climbing Boston Center
12:44PM 43.1628 -72.6847 273° West 329 379 22,300 900 Climbing Boston Center
12:45PM 43.1625 -72.8131 270° West 329 379 23,100 780 Climbing Boston Center
12:46PM 43.1642 -72.9411 271° West 329 379 23,900 720 Climbing Boston Center
12:47PM 43.1678 -73.0719 272° West 334 384 24,600 660 Climbing Boston Center
12:48PM 43.1689 -73.2031 271° West 339 390 25,300 720 Climbing Boston Center
12:49PM 43.1700 -73.3369 271° West 351 404 26,100 660 Climbing Boston Center
12:50PM 43.1692 -73.4564 269° West 351 404 26,700 540 Climbing Boston Center
12:51PM 43.1700 -73.5903 271° West 351 404 27,200 420 Climbing Boston Center
12:53PM 43.1725 -73.7239 272° West 351 404 27,700 360 Climbing Boston Center
12:54PM 43.1708 -73.8833 269° West 346 398 28,000 120 Climbing Boston Center
12:55PM 43.1711 -74.0172 270° West 346 398 28,000  Level Boston Center
12:56PM 43.1711 -74.1539 270° West 351 404 28,000  Level Boston Center
12:57PM 43.1731 -74.2906 271° West 351 404 28,000  Level Boston Center
12:58PM 43.1731 -74.4244 270° West 351 404 28,000  Level Boston Center
12:59PM 43.1725 -74.5639 270° West 356 410 28,000  Level Boston Center
01:00PM 43.1742 -74.6978 271° West 361 415 28,000  Level Boston Center
01:01PM 43.1736 -74.8344 270° West 361 415 28,000  Level Boston Center
01:02PM 43.1725 -74.9711 269° West 366 421 28,000  Level Boston Center
01:03PM 43.1694 -75.1106 268° West 366 421 28,000  Level Boston Center
01:04PM 43.1700 -75.2614 270° West 366 421 28,000  Level Boston Center
01:05PM 43.1706 -75.4011 270° West 366 421 28,000  Level Boston Center
01:06PM 43.1689 -75.5406 269° West 366 421 28,000  Level Boston Center
01:07PM 43.1686 -75.7056 270° West 366 421 28,000  Level Boston Center
01:08PM 43.1667 -75.8450 269° West 366 421 28,000  Level Boston Center
01:09PM 43.1667 -75.9789 270° West 366 421 28,000  Level Boston Center
01:11PM 43.1567 -76.2511 267° West 365 420 28,000  Level Cleveland Center
01:12PM 43.1450 -76.3886 263° West 370 426 28,000  Level Cleveland Center
01:13PM 43.1331 -76.5233 263° West 365 420 28,000  Level Cleveland Center
01:14PM 43.1231 -76.6575 264° West 365 420 28,000  Level Cleveland Center
01:15PM 43.1111 -76.7950 263° West 370 426 28,000  Level Cleveland Center
01:16PM 43.0986 -76.9294 263° West 370 426 28,000  Level Cleveland Center
01:17PM 43.0861 -77.0636 263° West 370 426 28,000  Level Cleveland Center
01:18PM 43.0736 -77.2008 263° West 370 426 28,000  Level Cleveland Center
01:19PM 43.0608 -77.3353 263° West 370 426 28,000  Level Cleveland Center
01:20PM 43.0478 -77.4722 263° West 370 426 28,000  Level Cleveland Center
01:21PM 43.0364 -77.5950 263° West 370 426 28,000  Level Cleveland Center
01:22PM 43.0233 -77.7319 263° West 370 426 28,000  Level Cleveland Center
01:23PM 43.0097 -77.8689 262° West 370 426 28,000  Level Cleveland Center
01:24PM 42.9964 -78.0086 263° West 370 426 28,000  Level Cleveland Center
01:25PM 42.9828 -78.1481 262° West 370 426 28,000  Level Cleveland Center
01:26PM 42.9689 -78.2878 262° West 370 426 28,000  Level Cleveland Center
01:27PM 42.9528 -78.4244 261° West 376 433 28,000  Level Cleveland Center
01:28PM 42.9408 -78.5639 263° West 371 427 28,000  Level Cleveland Center
01:29PM 42.9242 -78.7006 261° West 371 427 28,000  Level Cleveland Center
01:30PM 42.9036 -78.8400 259° West 371 427 28,000  Level Cleveland Center
01:31PM 42.8847 -78.9794 260° West 371 427 28,000  Level Cleveland Center
01:32PM 42.8636 -79.1189 258° West 371 427 28,000  Level Cleveland Center
01:33PM 42.8425 -79.2581 258° West 376 433 28,000  Level Cleveland Center
01:34PM 42.8231 -79.3944 259° West 376 433 28,000  Level Cleveland Center
01:35PM 42.8036 -79.5361 259° West 376 433 28,000  Level Cleveland Center
01:36PM 42.7817 -79.6753 258° West 371 427 28,000  Level Cleveland Center
01:37PM 42.7600 -79.8142 258° West 371 427 28,000  Level Cleveland Center
01:38PM 42.7483 -79.9556 264° West 371 427 28,000  Level Cleveland Center
01:39PM 42.7406 -80.1111 266° West 380 437 28,000  Level Cleveland Center
01:40PM 42.7347 -80.2525 267° West 386 444 28,000  Level Cleveland Center
01:41PM 42.7289 -80.3825 267° West 386 444 28,000  Level Cleveland Center
01:42PM 42.7228 -80.5267 267° West 386 444 28,000  Level Cleveland Center
01:43PM 42.7186 -80.6708 268° West 386 444 28,000  Level Cleveland Center
01:44PM 42.7100 -80.8092 265° West 386 444 28,000  Level Cleveland Center
01:45PM 42.7014 -80.9561 265° West 386 444 28,000 -240 Level Cleveland Center
01:46PM 42.6819 -81.0972 259° West 381 438 27,600 -480 Descending Cleveland Center
01:47PM 42.6667 -81.2411 262° West 381 438 27,100 -540 Descending Cleveland Center
01:48PM 42.6492 -81.3961 261° West 387 445 26,600 -600 Descending Cleveland Center
01:49PM 42.6333 -81.5314 261° West 382 440 26,000 -720 Descending Cleveland Center
01:50PM 42.6156 -81.6667 260° West 373 429 25,200 -1,500 Descending Cleveland Center
01:51PM 42.5997 -81.7961 261° West 366 421 23,100 -2,100 Descending Cleveland Center
01:52PM 42.5836 -81.9225 260° West 360 414 21,100 -2,040 Descending Cleveland Center
01:53PM 42.5675 -82.0492 260° West 348 400 19,100 -1,800 Descending Cleveland Center
01:54PM 42.5533 -82.1728 261° West 342 394 17,600 -1,680 Descending Cleveland Center
01:54PM 42.5464 -82.2347 261° West 332 382 16,600 -1,920 Descending Cleveland Center
01:55PM 42.5369 -82.2964 258° West 342 394 15,700 -1,980 Descending Cleveland Center
01:55PM 42.5317 -82.3722 265° West 340 391 14,600 -1,920 Descending Cleveland Center
01:56PM 42.5228 -82.4200 256° West 342 394 13,800 -1,740 Descending Cleveland Center
01:56PM 42.5128 -82.5069 261° West 334 384 12,700 -1,620 Descending Cleveland Center
01:57PM 42.5061 -82.5433 256° West 337 388 12,200 -660 Descending Cleveland Center
01:57PM 42.4861 -82.6103 248° West 320 368 12,100 -120 Descending Cleveland Center
01:58PM 42.4686 -82.6547 242° Southwest 325 374 12,100  Level Cleveland Center
01:58PM 42.4486 -82.7161 246° West 315 362 12,100  Level Cleveland Center
01:59PM 42.4311 -82.7606 242° Southwest 320 368 12,100  Level Cleveland Center
01:59PM 42.4069 -82.8328 246° West 316 364 12,100  Level Cleveland Center
02:00PM 42.3917 -82.8689 240° Southwest 320 368 12,100  Level Cleveland Center
02:00PM 42.3672 -82.9383 245° Southwest 318 366 12,100 -120 Level Cleveland Center
02:01PM 42.3542 -82.9742 244° Southwest 320 368 12,000  Descending Cleveland Center
02:01PM 42.3317 -83.0436 246° West 291 335 12,100 -120 Climbing Cleveland Center
02:02PM 42.3186 -83.0683 234° Southwest 305 351 11,900  Descending Cleveland Center
02:02PM 42.3008 -83.1211 246° West 205 236 12,100 60 Climbing Cleveland Center
02:03PM 42.2919 -83.1458 244° Southwest 268 308 12,000  Descending Cleveland Center
02:03PM 42.2822 -83.1633 233° Southwest 234 269 12,100  Climbing FAA TRACON SMA TRACON (SMA)
02:03PM 42.2633 -83.1758 206° Southwest 236 272 12,000 -780 Descending FAA TRACON SMA TRACON (SMA)
02:04PM 42.2447 -83.1883 206° Southwest 240 276 11,600 -1,500 Descending FAA TRACON SMA TRACON (SMA)
02:04PM 42.2211 -83.2036 206° Southwest 233 268 11,000 -1,380 Descending FAA TRACON SMA TRACON (SMA)
02:04PM 42.2033 -83.2150 205° Southwest 234 269 10,700 -1,080 Descending FAA TRACON SMA TRACON (SMA)
02:05PM 42.1856 -83.2278 208° Southwest 233 268 10,300 -1,440 Descending FAA TRACON SMA TRACON (SMA)
02:05PM 42.1458 -83.2544 206° Southwest 232 267 9,300 -1,440 Descending FAA TRACON SMA TRACON (SMA)
02:06PM 42.1281 -83.2669 208° Southwest 232 267 8,900 -1,500 Descending FAA TRACON SMA TRACON (SMA)
02:06PM 42.1064 -83.2828 208° Southwest 230 265 8,300 -1,560 Descending FAA TRACON SMA TRACON (SMA)
02:06PM 42.0894 -83.2964 211° Southwest 231 266 7,900 -1,080 Descending FAA TRACON SMA TRACON (SMA)
02:07PM 42.0733 -83.3097 212° Southwest 225 259 7,600 -1,080 Descending FAA TRACON SMA TRACON (SMA)
02:07PM 42.0575 -83.3231 212° Southwest 219 252 7,200 -1,380 Descending FAA TRACON SMA TRACON (SMA)
02:07PM 42.0381 -83.3394 212° Southwest 215 247 6,700 -1,080 Descending FAA TRACON SMA TRACON (SMA)
02:08PM 42.0242 -83.3542 218° Southwest 207 238 6,500 -780 Descending FAA TRACON SMA TRACON (SMA)
02:08PM 42.0186 -83.3814 255° West 200 230 6,200 -1,080 Descending FAA TRACON SMA TRACON (SMA)
02:08PM 42.0228 -83.4031 285° West 194 223 5,800 -1,500 Descending FAA TRACON SMA TRACON (SMA)
02:09PM 42.0267 -83.4242 284° West 195 224 5,200 -1,920 Descending FAA TRACON SMA TRACON (SMA)
02:09PM 42.0403 -83.4397 320° Northwest 201 231 4,500 -1,680 Descending FAA TRACON SMA TRACON (SMA)
02:09PM 42.0589 -83.4419 355° North 192 221 4,100 -1,200 Descending FAA TRACON SMA TRACON (SMA)
02:10PM 42.0786 -83.4383 North 181 208 3,700 -1,200 Descending FAA TRACON SMA TRACON (SMA)
02:10PM 42.0908 -83.4306 25° Northeast 176 203 3,300 -1,200 Descending FAA TRACON SMA TRACON (SMA)